sensor_id;sensor_type;location;lat;lon;timestamp;pressure;altitude;pressure_sealevel;temperature;humidity
16255;BME280;8235;52.198;9.904;2023-04-03T00:01:17;102340.88;;;1.45;72.63
16255;BME280;8235;52.198;9.904;2023-04-03T00:03:44;102340.03;;;1.39;72.92
16255;BME280;8235;52.198;9.904;2023-04-03T00:06:11;102337.41;;;1.38;73.09
16255;BME280;8235;52.198;9.904;2023-04-03T00:08:39;102350.53;;;1.36;73.46
16255;BME280;8235;52.198;9.904;2023-04-03T00:11:06;102348.75;;;1.34;73.63
16255;BME280;8235;52.198;9.904;2023-04-03T00:13:33;102353.13;;;1.32;73.85
16255;BME280;8235;52.198;9.904;2023-04-03T00:16:00;102352.25;;;1.28;73.83
16255;BME280;8235;52.198;9.904;2023-04-03T00:18:30;102357.47;;;1.27;73.99
16255;BME280;8235;52.198;9.904;2023-04-03T00:20:57;102352.25;;;1.24;73.81
16255;BME280;8235;52.198;9.904;2023-04-03T00:23:23;102346.13;;;1.22;73.91
16255;BME280;8235;52.198;9.904;2023-04-03T00:25:50;102351.38;;;1.20;74.17
16255;BME280;8235;52.198;9.904;2023-04-03T00:28:17;102353.97;;;1.17;74.24
16255;BME280;8235;52.198;9.904;2023-04-03T00:30:43;102366.22;;;1.15;74.27
16255;BME280;8235;52.198;9.904;2023-04-03T00:33:11;102367.97;;;1.13;74.75
16255;BME280;8235;52.198;9.904;2023-04-03T00:35:40;102365.31;;;1.09;74.65
16255;BME280;8235;52.198;9.904;2023-04-03T00:38:06;102363.59;;;1.06;74.84
16255;BME280;8235;52.198;9.904;2023-04-03T00:40:42;102374.94;;;1.05;75.22
16255;BME280;8235;52.198;9.904;2023-04-03T00:43:12;102364.44;;;1.02;75.19
16255;BME280;8235;52.198;9.904;2023-04-03T00:45:41;102371.41;;;0.97;75.55
16255;BME280;8235;52.198;9.904;2023-04-03T00:48:11;102374.03;;;0.95;75.56
16255;BME280;8235;52.198;9.904;2023-04-03T00:50:42;102377.50;;;0.93;76.03
16255;BME280;8235;52.198;9.904;2023-04-03T00:53:12;102381.88;;;0.89;76.10
16255;BME280;8235;52.198;9.904;2023-04-03T00:55:41;102377.50;;;0.85;76.46
16255;BME280;8235;52.198;9.904;2023-04-03T00:58:08;102377.47;;;0.84;76.51
16255;BME280;8235;52.198;9.904;2023-04-03T01:00:37;102379.22;;;0.82;76.46
16255;BME280;8235;52.198;9.904;2023-04-03T01:03:05;102382.69;;;0.79;76.56
16255;BME280;8235;52.198;9.904;2023-04-03T01:05:31;102376.56;;;0.76;76.92
16255;BME280;8235;52.198;9.904;2023-04-03T01:08:00;102373.94;;;0.71;76.90
16255;BME280;8235;52.198;9.904;2023-04-03T01:10:27;102372.19;;;0.68;77.05
16255;BME280;8235;52.198;9.904;2023-04-03T01:12:53;102374.78;;;0.65;77.07
16255;BME280;8235;52.198;9.904;2023-04-03T01:15:22;102378.25;;;0.63;77.35
16255;BME280;8235;52.198;9.904;2023-04-03T01:17:50;102379.09;;;0.59;77.51
16255;BME280;8235;52.198;9.904;2023-04-03T01:23:41;102383.44;;;0.49;77.66
16255;BME280;8235;52.198;9.904;2023-04-03T01:26:11;102384.28;;;0.47;77.71
16255;BME280;8235;52.198;9.904;2023-04-03T01:28:38;102382.50;;;0.43;78.28
16255;BME280;8235;52.198;9.904;2023-04-03T01:31:13;102392.09;;;0.39;78.00
16255;BME280;8235;52.198;9.904;2023-04-03T01:33:43;102383.34;;;0.37;78.27
16255;BME280;8235;52.198;9.904;2023-04-03T01:36:15;102388.59;;;0.37;78.40
16255;BME280;8235;52.198;9.904;2023-04-03T01:38:42;102386.84;;;0.33;78.87
16255;BME280;8235;52.198;9.904;2023-04-03T01:41:09;102387.69;;;0.30;78.71
16255;BME280;8235;52.198;9.904;2023-04-03T01:43:35;102389.41;;;0.27;78.79
16255;BME280;8235;52.198;9.904;2023-04-03T01:46:02;102388.50;;;0.23;79.13
16255;BME280;8235;52.198;9.904;2023-04-03T01:48:28;102391.09;;;0.20;78.96
16255;BME280;8235;52.198;9.904;2023-04-03T01:50:56;102391.97;;;0.18;79.50
16255;BME280;8235;52.198;9.904;2023-04-03T01:53:23;102388.47;;;0.16;79.42
16255;BME280;8235;52.198;9.904;2023-04-03T01:55:50;102400.66;;;0.12;79.84
16255;BME280;8235;52.198;9.904;2023-04-03T01:58:16;102406.75;;;0.11;79.74
16255;BME280;8235;52.198;9.904;2023-04-03T02:00:43;102405.00;;;0.09;80.08
16255;BME280;8235;52.198;9.904;2023-04-03T02:03:09;102405.00;;;0.09;79.91
16255;BME280;8235;52.198;9.904;2023-04-03T02:05:36;102405.84;;;0.08;79.95
16255;BME280;8235;52.198;9.904;2023-04-03T02:08:04;102410.19;;;0.06;80.09
16255;BME280;8235;52.198;9.904;2023-04-03T02:10:31;102409.31;;;0.04;80.18
16255;BME280;8235;52.198;9.904;2023-04-03T02:12:57;102409.28;;;0.00;80.36
16255;BME280;8235;52.198;9.904;2023-04-03T02:15:24;102410.16;;;-0.02;80.65
16255;BME280;8235;52.198;9.904;2023-04-03T02:17:51;102409.25;;;-0.04;80.71
16255;BME280;8235;52.198;9.904;2023-04-03T02:20:18;102405.75;;;-0.06;80.69
16255;BME280;8235;52.198;9.904;2023-04-03T02:22:46;102406.59;;;-0.09;80.87
16255;BME280;8235;52.198;9.904;2023-04-03T02:25:14;102402.22;;;-0.11;80.83
16255;BME280;8235;52.198;9.904;2023-04-03T02:27:42;102410.91;;;-0.14;80.74
16255;BME280;8235;52.198;9.904;2023-04-03T02:30:10;102409.13;;;-0.16;80.87
16255;BME280;8235;52.198;9.904;2023-04-03T02:32:37;102396.94;;;-0.19;80.90
16255;BME280;8235;52.198;9.904;2023-04-03T02:35:04;102403.88;;;-0.18;80.95
16255;BME280;8235;52.198;9.904;2023-04-03T02:37:31;102410.00;;;-0.20;81.39
16255;BME280;8235;52.198;9.904;2023-04-03T02:39:58;102405.63;;;-0.21;81.26
16255;BME280;8235;52.198;9.904;2023-04-03T02:42:25;102408.25;;;-0.20;81.46
16255;BME280;8235;52.198;9.904;2023-04-03T02:44:52;102412.59;;;-0.22;81.38
16255;BME280;8235;52.198;9.904;2023-04-03T02:47:18;102414.34;;;-0.22;81.59
16255;BME280;8235;52.198;9.904;2023-04-03T02:49:45;102407.34;;;-0.23;81.98
16255;BME280;8235;52.198;9.904;2023-04-03T02:52:12;102417.81;;;-0.23;81.68
16255;BME280;8235;52.198;9.904;2023-04-03T02:54:38;102410.81;;;-0.26;81.89
16255;BME280;8235;52.198;9.904;2023-04-03T02:57:06;102412.53;;;-0.28;82.18
16255;BME280;8235;52.198;9.904;2023-04-03T02:59:35;102412.53;;;-0.28;82.16
16255;BME280;8235;52.198;9.904;2023-04-03T03:02:02;102413.41;;;-0.29;81.85
16255;BME280;8235;52.198;9.904;2023-04-03T03:04:28;102410.78;;;-0.29;81.99
16255;BME280;8235;52.198;9.904;2023-04-03T03:06:55;102415.97;;;-0.32;82.15
16255;BME280;8235;52.198;9.904;2023-04-03T03:09:21;102420.34;;;-0.32;82.30
16255;BME280;8235;52.198;9.904;2023-04-03T03:11:48;102423.78;;;-0.35;82.22
16255;BME280;8235;52.198;9.904;2023-04-03T03:14:15;102415.94;;;-0.35;82.16
16255;BME280;8235;52.198;9.904;2023-04-03T03:16:42;102429.91;;;-0.38;81.94
16255;BME280;8235;52.198;9.904;2023-04-03T03:19:10;102428.16;;;-0.39;82.18
16255;BME280;8235;52.198;9.904;2023-04-03T03:21:37;102432.50;;;-0.41;82.38
16255;BME280;8235;52.198;9.904;2023-04-03T03:24:03;102423.72;;;-0.44;81.93
16255;BME280;8235;52.198;9.904;2023-04-03T03:26:30;102429.81;;;-0.45;82.18
16255;BME280;8235;52.198;9.904;2023-04-03T03:28:56;102429.81;;;-0.47;82.24
16255;BME280;8235;52.198;9.904;2023-04-03T03:31:23;102436.75;;;-0.49;82.21
16255;BME280;8235;52.198;9.904;2023-04-03T03:33:51;102434.97;;;-0.51;82.48
16255;BME280;8235;52.198;9.904;2023-04-03T03:36:17;102443.72;;;-0.54;82.38
16255;BME280;8235;52.198;9.904;2023-04-03T03:38:44;102446.31;;;-0.55;82.31
16255;BME280;8235;52.198;9.904;2023-04-03T03:41:10;102443.66;;;-0.58;82.13
16255;BME280;8235;52.198;9.904;2023-04-03T03:43:37;102443.59;;;-0.61;82.37
16255;BME280;8235;52.198;9.904;2023-04-03T03:46:03;102448.81;;;-0.64;82.55
16255;BME280;8235;52.198;9.904;2023-04-03T03:48:30;102444.41;;;-0.67;82.56
16255;BME280;8235;52.198;9.904;2023-04-03T03:50:58;102442.59;;;-0.71;82.18
16255;BME280;8235;52.198;9.904;2023-04-03T03:53:24;102450.47;;;-0.73;82.30
16255;BME280;8235;52.198;9.904;2023-04-03T03:55:51;102444.31;;;-0.76;82.96
16255;BME280;8235;52.198;9.904;2023-04-03T03:58:17;102449.53;;;-0.78;82.53
16255;BME280;8235;52.198;9.904;2023-04-03T04:00:44;102446.88;;;-0.81;82.70
16255;BME280;8235;52.198;9.904;2023-04-03T04:03:11;102454.63;;;-0.87;82.34
16255;BME280;8235;52.198;9.904;2023-04-03T04:05:37;102457.19;;;-0.93;82.51
16255;BME280;8235;52.198;9.904;2023-04-03T04:08:07;102452.78;;;-0.97;82.62
16255;BME280;8235;52.198;9.904;2023-04-03T04:10:33;102458.81;;;-1.01;82.82
16255;BME280;8235;52.198;9.904;2023-04-03T04:13:00;102460.50;;;-1.05;82.68
16255;BME280;8235;52.198;9.904;2023-04-03T04:15:27;102454.38;;;-1.08;83.03
16255;BME280;8235;52.198;9.904;2023-04-03T04:17:53;102457.84;;;-1.11;83.06
16255;BME280;8235;52.198;9.904;2023-04-03T04:20:20;102455.16;;;-1.14;82.91
16255;BME280;8235;52.198;9.904;2023-04-03T04:22:47;102454.28;;;-1.16;83.45
16255;BME280;8235;52.198;9.904;2023-04-03T04:25:15;102449.88;;;-1.18;83.75
16255;BME280;8235;52.198;9.904;2023-04-03T04:27:42;102450.75;;;-1.18;83.53
16255;BME280;8235;52.198;9.904;2023-04-03T04:30:10;102461.19;;;-1.19;83.81
16255;BME280;8235;52.198;9.904;2023-04-03T04:32:37;102456.78;;;-1.22;84.24
16255;BME280;8235;52.198;9.904;2023-04-03T04:35:04;102458.53;;;-1.22;84.04
16255;BME280;8235;52.198;9.904;2023-04-03T04:37:30;102457.66;;;-1.23;84.50
16255;BME280;8235;52.198;9.904;2023-04-03T04:39:57;102465.47;;;-1.24;84.49
16255;BME280;8235;52.198;9.904;2023-04-03T04:42:25;102467.19;;;-1.25;84.79
16255;BME280;8235;52.198;9.904;2023-04-03T04:44:52;102464.59;;;-1.26;84.21
16255;BME280;8235;52.198;9.904;2023-04-03T04:47:19;102464.56;;;-1.28;84.51
16255;BME280;8235;52.198;9.904;2023-04-03T04:49:45;102461.94;;;-1.29;84.96
16255;BME280;8235;52.198;9.904;2023-04-03T04:52:12;102467.16;;;-1.29;84.57
16255;BME280;8235;52.198;9.904;2023-04-03T04:54:39;102466.28;;;-1.30;85.09
16255;BME280;8235;52.198;9.904;2023-04-03T04:57:06;102475.81;;;-1.32;84.90
16255;BME280;8235;52.198;9.904;2023-04-03T04:59:34;102477.56;;;-1.32;85.14
16255;BME280;8235;52.198;9.904;2023-04-03T05:02:00;102470.56;;;-1.33;85.33
16255;BME280;8235;52.198;9.904;2023-04-03T05:04:27;102479.28;;;-1.34;84.69
16255;BME280;8235;52.198;9.904;2023-04-03T05:06:53;102480.13;;;-1.35;85.05
16255;BME280;8235;52.198;9.904;2023-04-03T05:09:20;102475.75;;;-1.36;85.06
16255;BME280;8235;52.198;9.904;2023-04-03T05:11:47;102485.31;;;-1.38;85.29
16255;BME280;8235;52.198;9.904;2023-04-03T05:14:14;102487.91;;;-1.38;85.51
16255;BME280;8235;52.198;9.904;2023-04-03T05:16:41;102475.69;;;-1.40;85.36
16255;BME280;8235;52.198;9.904;2023-04-03T05:19:08;102480.94;;;-1.40;85.13
16255;BME280;8235;52.198;9.904;2023-04-03T05:21:35;102476.56;;;-1.41;85.62
16255;BME280;8235;52.198;9.904;2023-04-03T05:24:02;102486.16;;;-1.40;85.92
16255;BME280;8235;52.198;9.904;2023-04-03T05:26:30;102489.69;;;-1.37;85.75
16255;BME280;8235;52.198;9.904;2023-04-03T05:28:56;102494.03;;;-1.38;86.12
16255;BME280;8235;52.198;9.904;2023-04-03T05:31:23;102499.28;;;-1.36;86.26
16255;BME280;8235;52.198;9.904;2023-04-03T05:33:51;102503.66;;;-1.35;86.40
16255;BME280;8235;52.198;9.904;2023-04-03T05:36:18;102500.22;;;-1.33;86.74
16255;BME280;8235;52.198;9.904;2023-04-03T05:38:45;102506.41;;;-1.26;87.25
16255;BME280;8235;52.198;9.904;2023-04-03T05:41:11;102516.09;;;-1.19;87.08
16255;BME280;8235;52.198;9.904;2023-04-03T05:43:38;102517.06;;;-1.13;86.97
16255;BME280;8235;52.198;9.904;2023-04-03T05:46:09;102524.09;;;-1.07;87.12
16255;BME280;8235;52.198;9.904;2023-04-03T05:48:35;102518.97;;;-1.01;87.33
16255;BME280;8235;52.198;9.904;2023-04-03T05:51:04;102526.03;;;-0.94;88.06
16255;BME280;8235;52.198;9.904;2023-04-03T05:53:33;102530.50;;;-0.85;88.39
16255;BME280;8235;52.198;9.904;2023-04-03T05:56:01;102530.63;;;-0.78;89.02
16255;BME280;8235;52.198;9.904;2023-04-03T05:58:28;102526.34;;;-0.70;88.99
16255;BME280;8235;52.198;9.904;2023-04-03T06:00:54;102533.47;;;-0.61;89.30
16255;BME280;8235;52.198;9.904;2023-04-03T06:03:21;102534.41;;;-0.54;88.62
16255;BME280;8235;52.198;9.904;2023-04-03T06:05:47;102543.19;;;-0.49;88.63
16255;BME280;8235;52.198;9.904;2023-04-03T06:08:15;102547.63;;;-0.44;88.98
16255;BME280;8235;52.198;9.904;2023-04-03T06:10:42;102552.91;;;-0.41;88.78
16255;BME280;8235;52.198;9.904;2023-04-03T06:13:08;102554.72;;;-0.37;88.68
16255;BME280;8235;52.198;9.904;2023-04-03T06:15:35;102554.75;;;-0.30;88.55
16255;BME280;8235;52.198;9.904;2023-04-03T06:18:03;102553.09;;;-0.24;89.37
16255;BME280;8235;52.198;9.904;2023-04-03T06:20:30;102561.91;;;-0.16;89.05
16255;BME280;8235;52.198;9.904;2023-04-03T06:22:57;102558.47;;;-0.10;88.84
16255;BME280;8235;52.198;9.904;2023-04-03T06:25:25;102565.56;;;-0.03;88.89
16255;BME280;8235;52.198;9.904;2023-04-03T06:27:51;102563.00;;;0.05;88.61
16255;BME280;8235;52.198;9.904;2023-04-03T06:30:20;102563.06;;;0.11;88.81
16255;BME280;8235;52.198;9.904;2023-04-03T06:32:47;102561.41;;;0.17;88.70
16255;BME280;8235;52.198;9.904;2023-04-03T06:35:14;102564.94;;;0.24;88.49
16255;BME280;8235;52.198;9.904;2023-04-03T06:37:42;102559.78;;;0.30;88.38
16255;BME280;8235;52.198;9.904;2023-04-03T06:40:18;102555.47;;;0.40;88.44
16255;BME280;8235;52.198;9.904;2023-04-03T06:42:48;102561.69;;;0.49;88.42
16255;BME280;8235;52.198;9.904;2023-04-03T06:45:15;102563.47;;;0.56;87.96
16255;BME280;8235;52.198;9.904;2023-04-03T06:47:42;102569.69;;;0.64;87.85
16255;BME280;8235;52.198;9.904;2023-04-03T06:50:11;102571.50;;;0.72;87.22
16255;BME280;8235;52.198;9.904;2023-04-03T06:52:40;102573.31;;;0.82;86.85
16255;BME280;8235;52.198;9.904;2023-04-03T06:55:08;102577.75;;;0.89;86.75
16255;BME280;8235;52.198;9.904;2023-04-03T06:57:35;102583.00;;;0.95;86.10
16255;BME280;8235;52.198;9.904;2023-04-03T07:00:05;102575.22;;;1.02;85.65
16255;BME280;8235;52.198;9.904;2023-04-03T07:02:32;102587.47;;;1.10;85.25
16255;BME280;8235;52.198;9.904;2023-04-03T07:04:58;102585.78;;;1.16;84.83
16255;BME280;8235;52.198;9.904;2023-04-03T07:07:25;102592.84;;;1.23;83.98
16255;BME280;8235;52.198;9.904;2023-04-03T07:09:51;102594.63;;;1.30;84.26
16255;BME280;8235;52.198;9.904;2023-04-03T07:12:18;102604.31;;;1.41;83.49
16255;BME280;8235;52.198;9.904;2023-04-03T07:14:44;102598.22;;;1.51;83.70
16255;BME280;8235;52.198;9.904;2023-04-03T07:17:12;102595.66;;;1.57;83.10
16255;BME280;8235;52.198;9.904;2023-04-03T07:19:38;102598.28;;;1.63;82.21
16255;BME280;8235;52.198;9.904;2023-04-03T07:22:05;102605.31;;;1.70;81.78
16255;BME280;8235;52.198;9.904;2023-04-03T07:24:31;102607.09;;;1.76;81.50
16255;BME280;8235;52.198;9.904;2023-04-03T07:26:58;102608.88;;;1.84;81.61
16255;BME280;8235;52.198;9.904;2023-04-03T07:29:24;102607.19;;;1.92;80.60
16255;BME280;8235;52.198;9.904;2023-04-03T07:31:51;102607.19;;;2.03;80.91
16255;BME280;8235;52.198;9.904;2023-04-03T07:34:19;102609.00;;;2.15;80.97
16255;BME280;8235;52.198;9.904;2023-04-03T07:36:45;102610.75;;;2.25;80.23
16255;BME280;8235;52.198;9.904;2023-04-03T07:39:11;102622.16;;;2.36;79.75
16255;BME280;8235;52.198;9.904;2023-04-03T07:41:38;102618.69;;;2.43;78.53
16255;BME280;8235;52.198;9.904;2023-04-03T07:44:05;102612.56;;;2.50;78.35
16255;BME280;8235;52.198;9.904;2023-04-03T07:46:31;102614.31;;;2.60;77.81
16255;BME280;8235;52.198;9.904;2023-04-03T07:48:58;102612.56;;;2.70;77.57
16255;BME280;8235;52.198;9.904;2023-04-03T07:51:26;102611.69;;;2.77;76.82
16255;BME280;8235;52.198;9.904;2023-04-03T07:53:53;102609.94;;;2.87;76.84
16255;BME280;8235;52.198;9.904;2023-04-03T07:56:19;102607.31;;;2.99;75.99
16255;BME280;8235;52.198;9.904;2023-04-03T07:58:46;102604.66;;;3.11;74.98
16255;BME280;8235;52.198;9.904;2023-04-03T08:01:12;102612.56;;;3.22;75.01
16255;BME280;8235;52.198;9.904;2023-04-03T08:03:39;102608.13;;;3.34;74.62
16255;BME280;8235;52.198;9.904;2023-04-03T08:06:07;102611.59;;;3.45;74.55
16255;BME280;8235;52.198;9.904;2023-04-03T08:08:35;102608.03;;;3.59;73.97
16255;BME280;8235;52.198;9.904;2023-04-03T08:11:02;102613.28;;;3.69;72.28
16255;BME280;8235;52.198;9.904;2023-04-03T08:13:30;102609.72;;;3.79;72.19
16255;BME280;8235;52.198;9.904;2023-04-03T08:15:57;102613.22;;;3.89;71.53
16255;BME280;8235;52.198;9.904;2023-04-03T08:18:24;102604.38;;;3.96;71.28
16255;BME280;8235;52.198;9.904;2023-04-03T08:20:51;102619.28;;;4.08;70.64
16255;BME280;8235;52.198;9.904;2023-04-03T08:23:18;102613.94;;;4.15;70.23
16255;BME280;8235;52.198;9.904;2023-04-03T08:25:46;102618.25;;;4.30;70.18
16255;BME280;8235;52.198;9.904;2023-04-03T08:28:13;102606.75;;;4.40;68.86
16255;BME280;8235;52.198;9.904;2023-04-03T08:30:40;102609.31;;;4.52;68.73
16255;BME280;8235;52.198;9.904;2023-04-03T08:33:07;102603.91;;;4.66;68.64
16255;BME280;8235;52.198;9.904;2023-04-03T08:35:38;102601.19;;;4.83;68.75
16255;BME280;8235;52.198;9.904;2023-04-03T08:38:05;102601.06;;;4.95;68.14
16255;BME280;8235;52.198;9.904;2023-04-03T08:40:32;102600.94;;;5.07;67.73
16255;BME280;8235;52.198;9.904;2023-04-03T08:43:11;102596.44;;;5.17;66.56
16255;BME280;8235;52.198;9.904;2023-04-03T08:45:45;102592.78;;;5.30;65.63
16255;BME280;8235;52.198;9.904;2023-04-03T08:48:15;102588.31;;;5.37;65.23
16255;BME280;8235;52.198;9.904;2023-04-03T08:50:43;102588.16;;;5.50;65.11
16255;BME280;8235;52.198;9.904;2023-04-03T08:53:14;102594.22;;;5.58;64.01
16255;BME280;8235;52.198;9.904;2023-04-03T08:55:43;102588.78;;;5.72;64.22
16255;BME280;8235;52.198;9.904;2023-04-03T08:58:15;102594.78;;;5.85;63.44
16255;BME280;8235;52.198;9.904;2023-04-03T09:00:45;102586.75;;;5.92;61.81
16255;BME280;8235;52.198;9.904;2023-04-03T09:03:14;102591.94;;;6.03;61.21
16255;BME280;8235;52.198;9.904;2023-04-03T09:05:45;102590.03;;;6.13;61.01
16255;BME280;8235;52.198;9.904;2023-04-03T09:08:21;102588.13;;;6.22;59.73
16255;BME280;8235;52.198;9.904;2023-04-03T09:10:49;102591.56;;;6.27;58.85
16255;BME280;8235;52.198;9.904;2023-04-03T09:13:24;102586.16;;;6.37;59.23
16255;BME280;8235;52.198;9.904;2023-04-03T09:15:56;102583.44;;;6.43;57.43
16255;BME280;8235;52.198;9.904;2023-04-03T09:18:26;102591.44;;;6.37;55.83
16255;BME280;8235;52.198;9.904;2023-04-03T09:21:00;102592.50;;;6.25;56.17
16255;BME280;8235;52.198;9.904;2023-04-03T09:23:32;102590.81;;;6.19;55.68
16255;BME280;8235;52.198;9.904;2023-04-03T09:26:03;102583.00;;;6.10;54.87
16255;BME280;8235;52.198;9.904;2023-04-03T09:28:37;102590.19;;;6.01;54.43
16255;BME280;8235;52.198;9.904;2023-04-03T09:31:16;102583.22;;;5.95;54.25
16255;BME280;8235;52.198;9.904;2023-04-03T09:33:45;102580.69;;;5.84;53.91
16255;BME280;8235;52.198;9.904;2023-04-03T09:36:12;102577.16;;;5.85;53.92
16255;BME280;8235;52.198;9.904;2023-04-03T09:38:38;102578.91;;;5.89;54.10
16255;BME280;8235;52.198;9.904;2023-04-03T09:41:11;102577.84;;;6.01;54.46
16255;BME280;8235;52.198;9.904;2023-04-03T09:43:52;102578.53;;;6.14;53.96
16255;BME280;8235;52.198;9.904;2023-04-03T09:46:25;102574.94;;;6.21;52.64
16255;BME280;8235;52.198;9.904;2023-04-03T09:48:57;102559.78;;;6.31;53.67
16255;BME280;8235;52.198;9.904;2023-04-03T09:51:26;102555.28;;;6.36;52.61
16255;BME280;8235;52.198;9.904;2023-04-03T09:53:54;102553.50;;;6.38;52.10
16255;BME280;8235;52.198;9.904;2023-04-03T09:56:24;102541.88;;;6.46;53.00
16255;BME280;8235;52.198;9.904;2023-04-03T09:59:07;102548.59;;;6.67;54.04
16255;BME280;8235;52.198;9.904;2023-04-03T10:01:35;102545.63;;;6.85;52.72
16255;BME280;8235;52.198;9.904;2023-04-03T10:04:08;102541.78;;;7.02;52.00
16255;BME280;8235;52.198;9.904;2023-04-03T10:06:37;102545.03;;;7.17;52.19
16255;BME280;8235;52.198;9.904;2023-04-03T10:09:17;102540.44;;;7.27;51.33
16255;BME280;8235;52.198;9.904;2023-04-03T10:11:58;102542.28;;;7.23;50.35
16255;BME280;8235;52.198;9.904;2023-04-03T10:14:27;102531.63;;;7.26;50.33
16255;BME280;8235;52.198;9.904;2023-04-03T10:17:02;102541.22;;;7.34;50.15
16255;BME280;8235;52.198;9.904;2023-04-03T10:19:35;102523.31;;;7.43;49.78
16255;BME280;8235;52.198;9.904;2023-04-03T10:22:09;102520.72;;;7.40;47.06
16255;BME280;8235;52.198;9.904;2023-04-03T10:24:47;102530.63;;;7.32;47.16
16255;BME280;8235;52.198;9.904;2023-04-03T10:27:18;102529.88;;;7.25;47.21
16255;BME280;8235;52.198;9.904;2023-04-03T10:29:56;102533.41;;;7.24;47.69
16255;BME280;8235;52.198;9.904;2023-04-03T10:32:35;102528.16;;;7.23;46.41
16255;BME280;8235;52.198;9.904;2023-04-03T10:35:15;102522.91;;;7.20;45.93
16255;BME280;8235;52.198;9.904;2023-04-03T10:37:54;102521.25;;;7.14;46.32
16255;BME280;8235;52.198;9.904;2023-04-03T10:40:30;102523.19;;;7.06;45.05
16255;BME280;8235;52.198;9.904;2023-04-03T10:43:06;102514.25;;;7.12;45.93
16255;BME280;8235;52.198;9.904;2023-04-03T10:45:57;102521.88;;;7.27;46.99
16255;BME280;8235;52.198;9.904;2023-04-03T10:48:38;102518.84;;;7.47;47.62
16255;BME280;8235;52.198;9.904;2023-04-03T10:51:15;102514.94;;;7.64;47.38
16255;BME280;8235;52.198;9.904;2023-04-03T10:53:51;102508.34;;;7.82;47.58
16255;BME280;8235;52.198;9.904;2023-04-03T10:56:29;102502.75;;;7.94;47.19
16255;BME280;8235;52.198;9.904;2023-04-03T10:59:12;102505.19;;;8.05;45.54
16255;BME280;8235;52.198;9.904;2023-04-03T11:01:43;102504.19;;;8.08;44.79
16255;BME280;8235;52.198;9.904;2023-04-03T11:04:11;102497.28;;;8.02;44.63
16255;BME280;8235;52.198;9.904;2023-04-03T11:06:42;102507.19;;;7.94;43.60
16255;BME280;8235;52.198;9.904;2023-04-03T11:09:16;102493.25;;;7.86;44.14
16255;BME280;8235;52.198;9.904;2023-04-03T11:11:46;102497.69;;;7.84;43.99
16255;BME280;8235;52.198;9.904;2023-04-03T11:14:18;102488.00;;;7.83;44.48
16255;BME280;8235;52.198;9.904;2023-04-03T11:16:55;102487.94;;;7.86;44.04
16255;BME280;8235;52.198;9.904;2023-04-03T11:19:34;102486.16;;;7.86;45.11
16255;BME280;8235;52.198;9.904;2023-04-03T11:22:06;102475.69;;;7.79;44.41
16255;BME280;8235;52.198;9.904;2023-04-03T11:24:36;102486.53;;;7.70;44.33
16255;BME280;8235;52.198;9.904;2023-04-03T11:27:05;102487.56;;;7.62;44.11
16255;BME280;8235;52.198;9.904;2023-04-03T11:29:38;102485.00;;;7.58;45.05
16255;BME280;8235;52.198;9.904;2023-04-03T11:32:21;102492.25;;;7.51;45.53
16255;BME280;8235;52.198;9.904;2023-04-03T11:34:55;102486.19;;;7.45;44.95
16255;BME280;8235;52.198;9.904;2023-04-03T11:37:28;102483.66;;;7.39;46.21
16255;BME280;8235;52.198;9.904;2023-04-03T11:40:01;102489.00;;;7.36;45.40
16255;BME280;8235;52.198;9.904;2023-04-03T11:42:33;102487.31;;;7.33;46.65
16255;BME280;8235;52.198;9.904;2023-04-03T11:45:23;102481.13;;;7.34;46.82
16255;BME280;8235;52.198;9.904;2023-04-03T11:47:54;102486.41;;;7.34;47.27
16255;BME280;8235;52.198;9.904;2023-04-03T11:50:41;102475.72;;;7.37;47.10
16255;BME280;8235;52.198;9.904;2023-04-03T11:53:29;102479.13;;;7.44;47.66
16255;BME280;8235;52.198;9.904;2023-04-03T11:56:02;102469.34;;;7.47;47.64
16255;BME280;8235;52.198;9.904;2023-04-03T11:58:31;102467.66;;;7.43;46.49
16255;BME280;8235;52.198;9.904;2023-04-03T12:01:09;102467.69;;;7.42;46.62
16255;BME280;8235;52.198;9.904;2023-04-03T12:07:12;102458.03;;;7.38;45.79
16255;BME280;8235;52.198;9.904;2023-04-03T12:10:01;102462.41;;;7.40;45.89
16255;BME280;8235;52.198;9.904;2023-04-03T12:12:31;102466.00;;;7.38;45.59
16255;BME280;8235;52.198;9.904;2023-04-03T12:18:31;102459.13;;;7.29;45.68
16255;BME280;8235;52.198;9.904;2023-04-03T12:20:58;102457.47;;;7.23;46.17
16255;BME280;8235;52.198;9.904;2023-04-03T12:23:31;102458.44;;;7.19;45.72
16255;BME280;8235;52.198;9.904;2023-04-03T12:26:18;102451.28;;;7.23;46.48
16255;BME280;8235;52.198;9.904;2023-04-03T12:28:48;102445.97;;;7.24;46.53
16255;BME280;8235;52.198;9.904;2023-04-03T12:31:18;102463.56;;;7.28;46.49
16255;BME280;8235;52.198;9.904;2023-04-03T12:34:02;102452.06;;;7.28;45.67
16255;BME280;8235;52.198;9.904;2023-04-03T12:36:39;102441.38;;;7.32;46.67
16255;BME280;8235;52.198;9.904;2023-04-03T12:39:40;102438.53;;;7.42;45.52
16255;BME280;8235;52.198;9.904;2023-04-03T12:42:24;102432.16;;;7.50;46.49
16255;BME280;8235;52.198;9.904;2023-04-03T12:45:01;102431.81;;;7.65;46.62
16255;BME280;8235;52.198;9.904;2023-04-03T12:47:31;102432.53;;;7.72;44.32
16255;BME280;8235;52.198;9.904;2023-04-03T12:50:02;102423.66;;;7.73;44.92
16255;BME280;8235;52.198;9.904;2023-04-03T12:52:36;102423.63;;;7.75;43.97
16255;BME280;8235;52.198;9.904;2023-04-03T12:55:14;102418.34;;;7.73;44.60
16255;BME280;8235;52.198;9.904;2023-04-03T12:57:41;102416.59;;;7.72;44.00
16255;BME280;8235;52.198;9.904;2023-04-03T13:00:29;102411.28;;;7.74;44.48
16255;BME280;8235;52.198;9.904;2023-04-03T13:02:58;102404.25;;;7.71;44.48
16255;BME280;8235;52.198;9.904;2023-04-03T13:08:27;102397.25;;;7.70;43.01
16255;BME280;8235;52.198;9.904;2023-04-03T13:10:56;102397.25;;;7.70;43.57
16255;BME280;8235;52.198;9.904;2023-04-03T13:13:24;102402.47;;;7.72;43.11
16255;BME280;8235;52.198;9.904;2023-04-03T13:15:52;102397.13;;;7.73;43.57
16255;BME280;8235;52.198;9.904;2023-04-03T13:18:24;102401.56;;;7.73;43.26
16255;BME280;8235;52.198;9.904;2023-04-03T13:20:52;102394.44;;;7.75;43.80
16255;BME280;8235;52.198;9.904;2023-04-03T13:23:20;102384.59;;;7.81;43.21
16255;BME280;8235;52.198;9.904;2023-04-03T13:25:50;102392.25;;;7.92;43.55
16255;BME280;8235;52.198;9.904;2023-04-03T13:28:19;102385.91;;;7.99;43.18
16255;BME280;8235;52.198;9.904;2023-04-03T13:31:02;102378.78;;;8.01;43.60
16255;BME280;8235;52.198;9.904;2023-04-03T13:33:32;102389.44;;;7.99;43.13